sensor_id;sensor_type;location;lat;lon;timestamp;temperature;humidity
35593;DHT22;64447;52.140;5.602;2024-01-30T00:01:11;9.50;99.90
35593;DHT22;64447;52.140;5.602;2024-01-30T00:03:37;9.50;99.90
35593;DHT22;64447;52.140;5.602;2024-01-30T00:06:03;9.50;99.90
35593;DHT22;64447;52.140;5.602;2024-01-30T00:08:29;9.30;99.90
35593;DHT22;64447;52.140;5.602;2024-01-30T00:10:55;9.50;99.90
35593;DHT22;64447;52.140;5.602;2024-01-30T00:13:20;9.50;99.90
35593;DHT22;64447;52.140;5.602;2024-01-30T00:15:46;9.60;99.90
35593;DHT22;64447;52.140;5.602;2024-01-30T00:18:12;9.60;99.90
35593;DHT22;64447;52.140;5.602;2024-01-30T00:20:37;9.60;99.90
35593;DHT22;64447;52.140;5.602;2024-01-30T00:23:03;9.70;99.90
35593;DHT22;64447;52.140;5.602;2024-01-30T00:25:29;9.70;99.90
35593;DHT22;64447;52.140;5.602;2024-01-30T00:27:54;9.70;99.90
35593;DHT22;64447;52.140;5.602;2024-01-30T00:30:20;9.70;99.90
35593;DHT22;64447;52.140;5.602;2024-01-30T00:32:46;9.70;99.90
35593;DHT22;64447;52.140;5.602;2024-01-30T00:35:12;9.50;99.90
35593;DHT22;64447;52.140;5.602;2024-01-30T00:37:37;9.60;99.90
35593;DHT22;64447;52.140;5.602;2024-01-30T00:40:03;9.60;99.90
35593;DHT22;64447;52.140;5.602;2024-01-30T00:42:31;9.50;99.90
35593;DHT22;64447;52.140;5.602;2024-01-30T00:44:57;9.40;99.90
35593;DHT22;64447;52.140;5.602;2024-01-30T00:47:23;9.50;99.90
35593;DHT22;64447;52.140;5.602;2024-01-30T00:49:49;9.60;99.90
35593;DHT22;64447;52.140;5.602;2024-01-30T00:52:15;9.60;99.90
35593;DHT22;64447;52.140;5.602;2024-01-30T00:54:41;9.60;99.90
35593;DHT22;64447;52.140;5.602;2024-01-30T00:57:07;9.60;99.90
35593;DHT22;64447;52.140;5.602;2024-01-30T00:59:33;9.50;99.90
35593;DHT22;64447;52.140;5.602;2024-01-30T01:01:58;9.40;99.90
35593;DHT22;64447;52.140;5.602;2024-01-30T01:04:24;9.40;99.90
35593;DHT22;64447;52.140;5.602;2024-01-30T01:06:52;9.40;99.90
35593;DHT22;64447;52.140;5.602;2024-01-30T01:09:18;9.30;99.90
35593;DHT22;64447;52.140;5.602;2024-01-30T01:11:43;9.30;99.90
35593;DHT22;64447;52.140;5.602;2024-01-30T01:14:09;9.40;99.90
35593;DHT22;64447;52.140;5.602;2024-01-30T01:16:34;9.20;99.90
35593;DHT22;64447;52.140;5.602;2024-01-30T01:19:00;9.30;99.90
35593;DHT22;64447;52.140;5.602;2024-01-30T01:21:26;9.40;99.90
35593;DHT22;64447;52.140;5.602;2024-01-30T01:23:52;9.30;99.90
35593;DHT22;64447;52.140;5.602;2024-01-30T01:26:18;9.30;99.90
35593;DHT22;64447;52.140;5.602;2024-01-30T01:28:43;9.40;99.90
35593;DHT22;64447;52.140;5.602;2024-01-30T01:31:09;9.40;99.90
35593;DHT22;64447;52.140;5.602;2024-01-30T01:33:34;9.20;99.90
35593;DHT22;64447;52.140;5.602;2024-01-30T01:36:02;9.20;99.90
35593;DHT22;64447;52.140;5.602;2024-01-30T01:38:28;9.20;99.90
35593;DHT22;64447;52.140;5.602;2024-01-30T01:40:54;9.30;99.90
35593;DHT22;64447;52.140;5.602;2024-01-30T01:43:19;9.10;99.90
35593;DHT22;64447;52.140;5.602;2024-01-30T01:45:45;9.00;99.90
35593;DHT22;64447;52.140;5.602;2024-01-30T01:48:11;8.90;99.90
35593;DHT22;64447;52.140;5.602;2024-01-30T01:50:38;8.90;99.90
35593;DHT22;64447;52.140;5.602;2024-01-30T01:53:08;8.70;99.90
35593;DHT22;64447;52.140;5.602;2024-01-30T01:55:35;8.70;99.90
35593;DHT22;64447;52.140;5.602;2024-01-30T01:58:01;8.80;99.90
35593;DHT22;64447;52.140;5.602;2024-01-30T02:00:27;8.90;99.90
35593;DHT22;64447;52.140;5.602;2024-01-30T02:02:54;8.90;99.90
35593;DHT22;64447;52.140;5.602;2024-01-30T02:05:21;8.80;99.90
35593;DHT22;64447;52.140;5.602;2024-01-30T02:07:47;9.00;99.90
35593;DHT22;64447;52.140;5.602;2024-01-30T02:10:13;9.00;99.90
35593;DHT22;64447;52.140;5.602;2024-01-30T02:12:39;9.00;99.90
35593;DHT22;64447;52.140;5.602;2024-01-30T02:15:05;9.20;99.90
35593;DHT22;64447;52.140;5.602;2024-01-30T02:17:32;9.20;99.90
35593;DHT22;64447;52.140;5.602;2024-01-30T02:19:58;9.30;99.90
35593;DHT22;64447;52.140;5.602;2024-01-30T02:22:24;9.30;99.90
35593;DHT22;64447;52.140;5.602;2024-01-30T02:24:50;9.30;99.90
35593;DHT22;64447;52.140;5.602;2024-01-30T02:27:15;9.40;99.90
35593;DHT22;64447;52.140;5.602;2024-01-30T02:29:41;9.30;99.90
35593;DHT22;64447;52.140;5.602;2024-01-30T02:32:07;9.30;99.90
35593;DHT22;64447;52.140;5.602;2024-01-30T02:34:33;9.20;99.90
35593;DHT22;64447;52.140;5.602;2024-01-30T02:36:59;9.20;99.90
35593;DHT22;64447;52.140;5.602;2024-01-30T02:39:24;9.30;99.90
35593;DHT22;64447;52.140;5.602;2024-01-30T02:41:50;9.30;99.90
35593;DHT22;64447;52.140;5.602;2024-01-30T02:44:16;9.30;99.90
35593;DHT22;64447;52.140;5.602;2024-01-30T02:46:41;9.30;99.90
35593;DHT22;64447;52.140;5.602;2024-01-30T02:49:07;9.40;99.90
35593;DHT22;64447;52.140;5.602;2024-01-30T02:51:32;9.30;99.90
35593;DHT22;64447;52.140;5.602;2024-01-30T02:53:58;9.40;99.90
35593;DHT22;64447;52.140;5.602;2024-01-30T02:56:24;9.40;99.90
35593;DHT22;64447;52.140;5.602;2024-01-30T02:58:49;9.40;99.90
35593;DHT22;64447;52.140;5.602;2024-01-30T03:01:15;9.30;99.90
35593;DHT22;64447;52.140;5.602;2024-01-30T03:03:40;9.20;99.90
35593;DHT22;64447;52.140;5.602;2024-01-30T03:06:07;9.20;99.90
35593;DHT22;64447;52.140;5.602;2024-01-30T03:08:33;9.20;99.90
35593;DHT22;64447;52.140;5.602;2024-01-30T03:11:00;9.10;99.90
35593;DHT22;64447;52.140;5.602;2024-01-30T03:13:26;9.10;99.90
35593;DHT22;64447;52.140;5.602;2024-01-30T03:15:52;9.10;99.90
35593;DHT22;64447;52.140;5.602;2024-01-30T03:18:18;9.10;99.90
35593;DHT22;64447;52.140;5.602;2024-01-30T03:20:44;9.20;99.90
35593;DHT22;64447;52.140;5.602;2024-01-30T03:23:10;9.30;99.90
35593;DHT22;64447;52.140;5.602;2024-01-30T03:25:35;9.30;99.90
35593;DHT22;64447;52.140;5.602;2024-01-30T03:28:01;9.30;99.90
35593;DHT22;64447;52.140;5.602;2024-01-30T03:30:26;9.30;99.90
35593;DHT22;64447;52.140;5.602;2024-01-30T03:32:52;9.30;99.90
35593;DHT22;64447;52.140;5.602;2024-01-30T03:35:19;9.40;99.90
35593;DHT22;64447;52.140;5.602;2024-01-30T03:37:44;9.20;99.90
35593;DHT22;64447;52.140;5.602;2024-01-30T03:40:10;9.00;99.90
35593;DHT22;64447;52.140;5.602;2024-01-30T03:42:36;9.00;99.90
35593;DHT22;64447;52.140;5.602;2024-01-30T03:45:02;9.00;99.90
35593;DHT22;64447;52.140;5.602;2024-01-30T03:47:28;9.00;99.90
35593;DHT22;64447;52.140;5.602;2024-01-30T03:49:53;9.20;99.90
35593;DHT22;64447;52.140;5.602;2024-01-30T03:52:19;9.20;99.90
35593;DHT22;64447;52.140;5.602;2024-01-30T03:54:45;9.30;99.90
35593;DHT22;64447;52.140;5.602;2024-01-30T03:57:10;9.30;99.90
35593;DHT22;64447;52.140;5.602;2024-01-30T03:59:36;9.20;99.90
35593;DHT22;64447;52.140;5.602;2024-01-30T04:02:02;9.30;99.90
35593;DHT22;64447;52.140;5.602;2024-01-30T04:04:28;9.20;99.90
35593;DHT22;64447;52.140;5.602;2024-01-30T04:06:53;9.30;99.90
35593;DHT22;64447;52.140;5.602;2024-01-30T04:09:19;9.20;99.90
35593;DHT22;64447;52.140;5.602;2024-01-30T04:11:44;9.00;99.90
35593;DHT22;64447;52.140;5.602;2024-01-30T04:14:10;8.90;99.90
35593;DHT22;64447;52.140;5.602;2024-01-30T04:16:36;8.90;99.90
35593;DHT22;64447;52.140;5.602;2024-01-30T04:19:02;8.90;99.90
35593;DHT22;64447;52.140;5.602;2024-01-30T04:21:27;8.80;99.90
35593;DHT22;64447;52.140;5.602;2024-01-30T04:23:53;8.70;99.90
35593;DHT22;64447;52.140;5.602;2024-01-30T04:26:19;8.70;99.90
35593;DHT22;64447;52.140;5.602;2024-01-30T04:28:45;8.70;99.90
35593;DHT22;64447;52.140;5.602;2024-01-30T04:31:10;8.70;99.90
35593;DHT22;64447;52.140;5.602;2024-01-30T04:33:36;8.70;99.90
35593;DHT22;64447;52.140;5.602;2024-01-30T04:36:02;8.90;99.90
35593;DHT22;64447;52.140;5.602;2024-01-30T04:38:28;8.80;99.90
35593;DHT22;64447;52.140;5.602;2024-01-30T04:40:54;8.70;99.90
35593;DHT22;64447;52.140;5.602;2024-01-30T04:43:20;8.70;99.90
35593;DHT22;64447;52.140;5.602;2024-01-30T04:45:45;8.80;99.90
35593;DHT22;64447;52.140;5.602;2024-01-30T04:48:11;8.80;99.90
35593;DHT22;64447;52.140;5.602;2024-01-30T04:50:37;8.70;99.90
35593;DHT22;64447;52.140;5.602;2024-01-30T04:53:03;8.80;99.90
35593;DHT22;64447;52.140;5.602;2024-01-30T04:55:28;8.90;99.90
35593;DHT22;64447;52.140;5.602;2024-01-30T04:57:54;8.90;99.90
35593;DHT22;64447;52.140;5.602;2024-01-30T05:00:19;9.00;99.90
35593;DHT22;64447;52.140;5.602;2024-01-30T05:02:45;8.90;99.90
35593;DHT22;64447;52.140;5.602;2024-01-30T05:05:11;8.90;99.90
35593;DHT22;64447;52.140;5.602;2024-01-30T05:07:36;8.80;99.90
35593;DHT22;64447;52.140;5.602;2024-01-30T05:10:02;9.00;99.90
35593;DHT22;64447;52.140;5.602;2024-01-30T05:12:28;9.00;99.90
35593;DHT22;64447;52.140;5.602;2024-01-30T05:14:54;8.90;99.90
35593;DHT22;64447;52.140;5.602;2024-01-30T05:17:20;8.90;99.90
35593;DHT22;64447;52.140;5.602;2024-01-30T05:19:46;8.90;99.90
35593;DHT22;64447;52.140;5.602;2024-01-30T05:22:11;8.90;99.90
35593;DHT22;64447;52.140;5.602;2024-01-30T05:24:43;8.90;99.90
35593;DHT22;64447;52.140;5.602;2024-01-30T05:27:09;8.90;99.90
35593;DHT22;64447;52.140;5.602;2024-01-30T05:29:35;9.00;99.90
35593;DHT22;64447;52.140;5.602;2024-01-30T05:32:00;9.10;99.90
35593;DHT22;64447;52.140;5.602;2024-01-30T05:34:26;9.10;99.90
35593;DHT22;64447;52.140;5.602;2024-01-30T05:36:51;9.20;99.90
35593;DHT22;64447;52.140;5.602;2024-01-30T05:39:17;9.10;99.90
35593;DHT22;64447;52.140;5.602;2024-01-30T05:41:43;9.20;99.90
35593;DHT22;64447;52.140;5.602;2024-01-30T05:44:08;9.20;99.90
35593;DHT22;64447;52.140;5.602;2024-01-30T05:46:35;9.20;99.90
35593;DHT22;64447;52.140;5.602;2024-01-30T05:49:01;9.10;99.90
35593;DHT22;64447;52.140;5.602;2024-01-30T05:51:26;9.10;99.90
35593;DHT22;64447;52.140;5.602;2024-01-30T05:53:53;9.00;99.90
35593;DHT22;64447;52.140;5.602;2024-01-30T05:56:19;9.20;99.90
35593;DHT22;64447;52.140;5.602;2024-01-30T05:58:45;9.30;99.90
35593;DHT22;64447;52.140;5.602;2024-01-30T06:01:11;9.40;99.90
35593;DHT22;64447;52.140;5.602;2024-01-30T06:03:36;9.40;99.90
35593;DHT22;64447;52.140;5.602;2024-01-30T06:06:02;9.60;99.90
35593;DHT22;64447;52.140;5.602;2024-01-30T06:08:28;9.60;99.90
35593;DHT22;64447;52.140;5.602;2024-01-30T06:10:53;9.60;99.90
35593;DHT22;64447;52.140;5.602;2024-01-30T06:13:19;9.50;99.90
35593;DHT22;64447;52.140;5.602;2024-01-30T06:15:46;9.40;99.90
35593;DHT22;64447;52.140;5.602;2024-01-30T06:18:11;9.30;99.90
35593;DHT22;64447;52.140;5.602;2024-01-30T06:20:37;9.10;99.90
35593;DHT22;64447;52.140;5.602;2024-01-30T06:23:03;9.20;99.90
35593;DHT22;64447;52.140;5.602;2024-01-30T06:25:28;9.20;99.90
35593;DHT22;64447;52.140;5.602;2024-01-30T06:27:54;9.50;99.90
35593;DHT22;64447;52.140;5.602;2024-01-30T06:30:20;9.50;99.90
35593;DHT22;64447;52.140;5.602;2024-01-30T06:32:45;9.30;99.90
35593;DHT22;64447;52.140;5.602;2024-01-30T06:35:11;9.40;99.90
35593;DHT22;64447;52.140;5.602;2024-01-30T06:37:37;9.50;99.90
35593;DHT22;64447;52.140;5.602;2024-01-30T06:40:02;9.40;99.90
35593;DHT22;64447;52.140;5.602;2024-01-30T06:42:30;9.30;99.90
35593;DHT22;64447;52.140;5.602;2024-01-30T06:44:56;9.30;99.90
35593;DHT22;64447;52.140;5.602;2024-01-30T06:47:21;9.30;99.90
35593;DHT22;64447;52.140;5.602;2024-01-30T06:49:47;9.30;99.90
35593;DHT22;64447;52.140;5.602;2024-01-30T06:52:12;9.50;99.90
35593;DHT22;64447;52.140;5.602;2024-01-30T06:54:38;9.60;99.90
35593;DHT22;64447;52.140;5.602;2024-01-30T06:57:05;9.60;99.90
35593;DHT22;64447;52.140;5.602;2024-01-30T06:59:34;9.70;99.90
35593;DHT22;64447;52.140;5.602;2024-01-30T07:02:00;9.60;99.90
35593;DHT22;64447;52.140;5.602;2024-01-30T07:04:25;9.60;99.90
35593;DHT22;64447;52.140;5.602;2024-01-30T07:06:51;9.50;99.90
35593;DHT22;64447;52.140;5.602;2024-01-30T07:09:18;9.40;99.90
35593;DHT22;64447;52.140;5.602;2024-01-30T07:11:44;9.30;99.90
35593;DHT22;64447;52.140;5.602;2024-01-30T07:14:10;9.30;99.90
35593;DHT22;64447;52.140;5.602;2024-01-30T07:16:35;9.40;99.90
35593;DHT22;64447;52.140;5.602;2024-01-30T07:19:01;9.30;99.90
35593;DHT22;64447;52.140;5.602;2024-01-30T07:21:27;9.40;99.90
35593;DHT22;64447;52.140;5.602;2024-01-30T07:23:56;9.40;99.90
35593;DHT22;64447;52.140;5.602;2024-01-30T07:26:22;9.40;99.90
35593;DHT22;64447;52.140;5.602;2024-01-30T07:28:48;9.40;99.90
35593;DHT22;64447;52.140;5.602;2024-01-30T07:31:14;9.40;99.90
35593;DHT22;64447;52.140;5.602;2024-01-30T07:33:39;9.40;99.90
35593;DHT22;64447;52.140;5.602;2024-01-30T07:36:05;9.40;99.90
35593;DHT22;64447;52.140;5.602;2024-01-30T07:38:34;9.50;99.90
35593;DHT22;64447;52.140;5.602;2024-01-30T07:41:00;9.60;99.90
35593;DHT22;64447;52.140;5.602;2024-01-30T07:43:25;9.50;99.90
35593;DHT22;64447;52.140;5.602;2024-01-30T07:45:51;9.50;99.90
35593;DHT22;64447;52.140;5.602;2024-01-30T07:48:16;9.60;99.90
35593;DHT22;64447;52.140;5.602;2024-01-30T07:50:42;9.80;99.90
35593;DHT22;64447;52.140;5.602;2024-01-30T07:53:08;9.80;99.90
35593;DHT22;64447;52.140;5.602;2024-01-30T07:55:34;9.80;99.90
35593;DHT22;64447;52.140;5.602;2024-01-30T07:57:59;9.70;99.90
35593;DHT22;64447;52.140;5.602;2024-01-30T08:00:28;9.60;99.90
35593;DHT22;64447;52.140;5.602;2024-01-30T08:02:54;9.40;99.90
35593;DHT22;64447;52.140;5.602;2024-01-30T08:05:21;9.40;99.90
35593;DHT22;64447;52.140;5.602;2024-01-30T08:07:48;9.40;99.90
35593;DHT22;64447;52.140;5.602;2024-01-30T08:10:14;9.40;99.90
35593;DHT22;64447;52.140;5.602;2024-01-30T08:12:41;9.40;99.90
35593;DHT22;64447;52.140;5.602;2024-01-30T08:15:06;9.40;99.90
35593;DHT22;64447;52.140;5.602;2024-01-30T08:17:33;9.40;99.90
35593;DHT22;64447;52.140;5.602;2024-01-30T08:19:58;9.40;99.90
35593;DHT22;64447;52.140;5.602;2024-01-30T08:22:24;9.50;99.90
35593;DHT22;64447;52.140;5.602;2024-01-30T08:24:50;9.50;99.90
35593;DHT22;64447;52.140;5.602;2024-01-30T08:27:16;9.50;99.90
35593;DHT22;64447;52.140;5.602;2024-01-30T08:29:41;9.60;99.90
35593;DHT22;64447;52.140;5.602;2024-01-30T08:32:07;9.50;99.90
35593;DHT22;64447;52.140;5.602;2024-01-30T08:34:33;9.50;99.90
35593;DHT22;64447;52.140;5.602;2024-01-30T08:36:59;9.50;99.90
35593;DHT22;64447;52.140;5.602;2024-01-30T08:39:25;9.60;99.90
35593;DHT22;64447;52.140;5.602;2024-01-30T08:41:50;9.60;99.90
35593;DHT22;64447;52.140;5.602;2024-01-30T08:44:16;9.70;99.90
35593;DHT22;64447;52.140;5.602;2024-01-30T08:46:44;9.80;99.90
35593;DHT22;64447;52.140;5.602;2024-01-30T08:49:11;9.80;99.90
35593;DHT22;64447;52.140;5.602;2024-01-30T08:51:39;9.70;99.90
35593;DHT22;64447;52.140;5.602;2024-01-30T08:54:04;9.80;99.90
35593;DHT22;64447;52.140;5.602;2024-01-30T08:56:30;9.80;99.90
35593;DHT22;64447;52.140;5.602;2024-01-30T08:58:56;9.90;99.90
35593;DHT22;64447;52.140;5.602;2024-01-30T09:01:21;10.00;99.90
35593;DHT22;64447;52.140;5.602;2024-01-30T09:03:47;10.00;99.90
35593;DHT22;64447;52.140;5.602;2024-01-30T09:06:13;9.90;99.90
35593;DHT22;64447;52.140;5.602;2024-01-30T09:08:39;9.90;99.90
35593;DHT22;64447;52.140;5.602;2024-01-30T09:11:14;10.00;99.90
35593;DHT22;64447;52.140;5.602;2024-01-30T09:13:40;10.10;99.90
35593;DHT22;64447;52.140;5.602;2024-01-30T09:16:06;10.10;99.90
35593;DHT22;64447;52.140;5.602;2024-01-30T09:18:32;10.10;99.90
35593;DHT22;64447;52.140;5.602;2024-01-30T09:20:58;10.00;99.90
35593;DHT22;64447;52.140;5.602;2024-01-30T09:23:24;10.10;99.90
35593;DHT22;64447;52.140;5.602;2024-01-30T09:25:50;10.10;99.90
35593;DHT22;64447;52.140;5.602;2024-01-30T09:28:17;10.10;99.90
35593;DHT22;64447;52.140;5.602;2024-01-30T09:30:43;10.20;99.90
35593;DHT22;64447;52.140;5.602;2024-01-30T09:33:08;10.20;99.90
35593;DHT22;64447;52.140;5.602;2024-01-30T09:35:35;10.30;99.90
35593;DHT22;64447;52.140;5.602;2024-01-30T09:38:02;10.30;99.90
35593;DHT22;64447;52.140;5.602;2024-01-30T09:40:28;10.20;99.90
35593;DHT22;64447;52.140;5.602;2024-01-30T09:42:54;10.30;99.90
35593;DHT22;64447;52.140;5.602;2024-01-30T09:45:25;10.40;99.90
35593;DHT22;64447;52.140;5.602;2024-01-30T09:47:50;10.40;99.90
35593;DHT22;64447;52.140;5.602;2024-01-30T09:50:17;10.40;99.90
35593;DHT22;64447;52.140;5.602;2024-01-30T09:52:46;10.40;99.90
35593;DHT22;64447;52.140;5.602;2024-01-30T09:55:12;10.40;99.90
35593;DHT22;64447;52.140;5.602;2024-01-30T09:57:38;10.50;99.90
35593;DHT22;64447;52.140;5.602;2024-01-30T10:00:05;10.40;99.90
35593;DHT22;64447;52.140;5.602;2024-01-30T10:02:36;10.40;99.90
35593;DHT22;64447;52.140;5.602;2024-01-30T10:05:02;10.50;99.90
35593;DHT22;64447;52.140;5.602;2024-01-30T10:07:28;10.50;99.90
35593;DHT22;64447;52.140;5.602;2024-01-30T10:09:55;10.60;99.90
35593;DHT22;64447;52.140;5.602;2024-01-30T10:12:22;10.60;99.90
35593;DHT22;64447;52.140;5.602;2024-01-30T10:14:48;10.70;99.90
35593;DHT22;64447;52.140;5.602;2024-01-30T10:17:13;10.70;99.90
35593;DHT22;64447;52.140;5.602;2024-01-30T10:19:40;10.80;99.90
35593;DHT22;64447;52.140;5.602;2024-01-30T10:22:06;10.80;99.90
35593;DHT22;64447;52.140;5.602;2024-01-30T10:24:33;10.90;99.90
35593;DHT22;64447;52.140;5.602;2024-01-30T10:26:59;10.90;99.90
35593;DHT22;64447;52.140;5.602;2024-01-30T10:29:25;11.00;99.90
35593;DHT22;64447;52.140;5.602;2024-01-30T10:32:04;11.00;99.90
35593;DHT22;64447;52.140;5.602;2024-01-30T10:34:30;11.00;99.90
35593;DHT22;64447;52.140;5.602;2024-01-30T10:39:28;11.10;99.90
35593;DHT22;64447;52.140;5.602;2024-01-30T10:41:56;11.10;99.90
35593;DHT22;64447;52.140;5.602;2024-01-30T10:44:24;11.20;99.90
35593;DHT22;64447;52.140;5.602;2024-01-30T10:46:56;11.30;99.90
35593;DHT22;64447;52.140;5.602;2024-01-30T10:49:24;11.30;99.90
35593;DHT22;64447;52.140;5.602;2024-01-30T10:51:51;11.40;99.90
35593;DHT22;64447;52.140;5.602;2024-01-30T10:54:18;11.40;99.90
35593;DHT22;64447;52.140;5.602;2024-01-30T10:56:45;11.40;99.90
35593;DHT22;64447;52.140;5.602;2024-01-30T10:59:12;11.50;99.90
35593;DHT22;64447;52.140;5.602;2024-01-30T11:01:39;11.50;99.90
35593;DHT22;64447;52.140;5.602;2024-01-30T11:04:05;11.50;99.90
35593;DHT22;64447;52.140;5.602;2024-01-30T11:06:31;11.40;99.90
35593;DHT22;64447;52.140;5.602;2024-01-30T11:09:05;11.50;99.90
35593;DHT22;64447;52.140;5.602;2024-01-30T11:11:57;11.40;99.90
35593;DHT22;64447;52.140;5.602;2024-01-30T11:14:29;11.40;99.90
35593;DHT22;64447;52.140;5.602;2024-01-30T11:16:59;11.40;99.90
35593;DHT22;64447;52.140;5.602;2024-01-30T11:19:31;11.40;99.90
35593;DHT22;64447;52.140;5.602;2024-01-30T11:21:57;11.40;99.90
35593;DHT22;64447;52.140;5.602;2024-01-30T11:24:23;11.50;99.90
35593;DHT22;64447;52.140;5.602;2024-01-30T11:26:54;11.60;99.90
35593;DHT22;64447;52.140;5.602;2024-01-30T11:29:27;11.80;99.90
35593;DHT22;64447;52.140;5.602;2024-01-30T11:31:57;11.60;99.90
35593;DHT22;64447;52.140;5.602;2024-01-30T11:34:23;11.60;99.90
35593;DHT22;64447;52.140;5.602;2024-01-30T11:36:56;11.70;99.90
35593;DHT22;64447;52.140;5.602;2024-01-30T11:39:26;11.60;99.90
35593;DHT22;64447;52.140;5.602;2024-01-30T11:41:52;11.60;99.90
35593;DHT22;64447;52.140;5.602;2024-01-30T11:44:22;11.60;99.90
35593;DHT22;64447;52.140;5.602;2024-01-30T11:46:49;11.50;99.90
35593;DHT22;64447;52.140;5.602;2024-01-30T11:49:15;11.50;99.90
35593;DHT22;64447;52.140;5.602;2024-01-30T11:51:41;11.70;99.90
35593;DHT22;64447;52.140;5.602;2024-01-30T11:54:07;11.20;99.90
35593;DHT22;64447;52.140;5.602;2024-01-30T11:56:33;11.40;99.90
35593;DHT22;64447;52.140;5.602;2024-01-30T11:58:59;11.10;99.90
35593;DHT22;64447;52.140;5.602;2024-01-30T12:01:28;11.30;99.90
35593;DHT22;64447;52.140;5.602;2024-01-30T12:03:54;11.60;99.90
35593;DHT22;64447;52.140;5.602;2024-01-30T12:06:22;10.50;99.90
35593;DHT22;64447;52.140;5.602;2024-01-30T12:09:01;11.30;99.90
35593;DHT22;64447;52.140;5.602;2024-01-30T12:11:29;11.30;99.90
35593;DHT22;64447;52.140;5.602;2024-01-30T12:13:55;11.30;99.90
35593;DHT22;64447;52.140;5.602;2024-01-30T12:16:22;11.30;99.90
35593;DHT22;64447;52.140;5.602;2024-01-30T12:18:48;11.30;99.90
35593;DHT22;64447;52.140;5.602;2024-01-30T12:21:16;11.30;99.90
35593;DHT22;64447;52.140;5.602;2024-01-30T12:23:43;11.30;99.90
35593;DHT22;64447;52.140;5.602;2024-01-30T12:26:10;11.40;99.90
35593;DHT22;64447;52.140;5.602;2024-01-30T12:28:36;11.50;99.90
35593;DHT22;64447;52.140;5.602;2024-01-30T12:31:04;11.50;99.90
35593;DHT22;64447;52.140;5.602;2024-01-30T12:33:30;11.40;99.90
35593;DHT22;64447;52.140;5.602;2024-01-30T12:35:57;11.20;99.90
35593;DHT22;64447;52.140;5.602;2024-01-30T12:38:27;11.20;99.90
35593;DHT22;64447;52.140;5.602;2024-01-30T12:40:55;10.80;99.90
35593;DHT22;64447;52.140;5.602;2024-01-30T12:43:22;10.80;99.90
35593;DHT22;64447;52.140;5.602;2024-01-30T12:45:49;10.60;99.90
35593;DHT22;64447;52.140;5.602;2024-01-30T12:48:15;10.70;99.90
35593;DHT22;64447;52.140;5.602;2024-01-30T12:50:41;10.50;99.90
35593;DHT22;64447;52.140;5.602;2024-01-30T12:53:07;10.40;99.90
35593;DHT22;64447;52.140;5.602;2024-01-30T12:55:34;10.30;99.90
35593;DHT22;64447;52.140;5.602;2024-01-30T12:58:00;10.30;99.90
35593;DHT22;64447;52.140;5.602;2024-01-30T13:00:25;10.30;99.90
35593;DHT22;64447;52.140;5.602;2024-01-30T13:02:51;10.20;99.90
35593;DHT22;64447;52.140;5.602;2024-01-30T13:05:17;10.10;99.90
35593;DHT22;64447;52.140;5.602;2024-01-30T13:07:43;10.10;99.90
35593;DHT22;64447;52.140;5.602;2024-01-30T13:10:09;10.00;99.90
35593;DHT22;64447;52.140;5.602;2024-01-30T13:12:34;10.00;99.90
35593;DHT22;64447;52.140;5.602;2024-01-30T13:15:01;10.00;99.90
35593;DHT22;64447;52.140;5.602;2024-01-30T13:17:30;10.00;99.90
35593;DHT22;64447;52.140;5.602;2024-01-30T13:19:56;10.10;99.90
35593;DHT22;64447;52.140;5.602;2024-01-30T13:22:21;10.10;99.90
35593;DHT22;64447;52.140;5.602;2024-01-30T13:24:50;10.10;99.90
35593;DHT22;64447;52.140;5.602;2024-01-30T13:27:16;10.10;99.90
35593;DHT22;64447;52.140;5.602;2024-01-30T13:29:41;10.10;99.90
35593;DHT22;64447;52.140;5.602;2024-01-30T13:32:10;10.00;99.90
35593;DHT22;64447;52.140;5.602;2024-01-30T13:34:36;10.00;99.90
35593;DHT22;64447;52.140;5.602;2024-01-30T13:37:01;10.00;99.90
35593;DHT22;64447;52.140;5.602;2024-01-30T13:39:27;10.00;99.90
35593;DHT22;64447;52.140;5.602;2024-01-30T13:41:54;10.00;99.90
35593;DHT22;64447;52.140;5.602;2024-01-30T13:44:20;9.90;99.90
35593;DHT22;64447;52.140;5.602;2024-01-30T13:46:46;10.00;99.90
35593;DHT22;64447;52.140;5.602;2024-01-30T13:49:12;9.90;99.90
35593;DHT22;64447;52.140;5.602;2024-01-30T13:51:37;10.00;99.90
35593;DHT22;64447;52.140;5.602;2024-01-30T13:54:03;9.90;99.90
35593;DHT22;64447;52.140;5.602;2024-01-30T13:56:29;9.80;99.90
35593;DHT22;64447;52.140;5.602;2024-01-30T13:58:55;9.80;99.90
35593;DHT22;64447;52.140;5.602;2024-01-30T14:03:48;9.80;99.90
35593;DHT22;64447;52.140;5.602;2024-01-30T14:06:14;9.70;99.90
35593;DHT22;64447;52.140;5.602;2024-01-30T14:08:40;9.60;99.90
35593;DHT22;64447;52.140;5.602;2024-01-30T14:11:05;9.60;99.90
35593;DHT22;64447;52.140;5.602;2024-01-30T14:13:32;9.40;99.90
35593;DHT22;64447;52.140;5.602;2024-01-30T14:15:58;9.50;99.90
35593;DHT22;64447;52.140;5.602;2024-01-30T14:18:24;9.50;99.90
35593;DHT22;64447;52.140;5.602;2024-01-30T14:20:51;9.40;99.90
35593;DHT22;64447;52.140;5.602;2024-01-30T14:23:17;9.40;99.90
35593;DHT22;64447;52.140;5.602;2024-01-30T14:25:43;9.50;99.90
35593;DHT22;64447;52.140;5.602;2024-01-30T14:28:09;9.40;99.90
35593;DHT22;64447;52.140;5.602;2024-01-30T14:30:34;9.40;99.90
35593;DHT22;64447;52.140;5.602;2024-01-30T14:33:01;9.40;99.90
35593;DHT22;64447;52.140;5.602;2024-01-30T14:35:26;9.40;99.90
35593;DHT22;64447;52.140;5.602;2024-01-30T14:37:52;9.40;99.90
35593;DHT22;64447;52.140;5.602;2024-01-30T14:40:19;9.40;99.90
35593;DHT22;64447;52.140;5.602;2024-01-30T14:42:45;9.50;99.90
35593;DHT22;64447;52.140;5.602;2024-01-30T14:45:11;9.50;99.90
35593;DHT22;64447;52.140;5.602;2024-01-30T14:47:37;9.50;99.90
35593;DHT22;64447;52.140;5.602;2024-01-30T14:50:03;9.50;99.90
35593;DHT22;64447;52.140;5.602;2024-01-30T14:52:31;9.60;99.90
35593;DHT22;64447;52.140;5.602;2024-01-30T14:54:57;9.60;99.90
35593;DHT22;64447;52.140;5.602;2024-01-30T14:57:27;9.40;99.90
35593;DHT22;64447;52.140;5.602;2024-01-30T14:59:53;9.30;99.90
35593;DHT22;64447;52.140;5.602;2024-01-30T15:02:18;9.30;99.90
35593;DHT22;64447;52.140;5.602;2024-01-30T15:04:44;9.20;99.90
35593;DHT22;64447;52.140;5.602;2024-01-30T15:07:10;9.20;99.90
35593;DHT22;64447;52.140;5.602;2024-01-30T15:09:35;9.10;99.90
35593;DHT22;64447;52.140;5.602;2024-01-30T15:12:01;9.00;99.90
35593;DHT22;64447;52.140;5.602;2024-01-30T15:14:27;8.90;99.90
35593;DHT22;64447;52.140;5.602;2024-01-30T15:16:52;8.80;99.90
35593;DHT22;64447;52.140;5.602;2024-01-30T15:19:18;8.80;99.90
35593;DHT22;64447;52.140;5.602;2024-01-30T15:21:43;8.80;99.90
35593;DHT22;64447;52.140;5.602;2024-01-30T15:24:09;8.90;99.90
35593;DHT22;64447;52.140;5.602;2024-01-30T15:26:38;8.80;99.90
35593;DHT22;64447;52.140;5.602;2024-01-30T15:29:03;8.70;99.90
35593;DHT22;64447;52.140;5.602;2024-01-30T15:31:30;8.70;99.90
35593;DHT22;64447;52.140;5.602;2024-01-30T15:33:55;8.60;99.90
35593;DHT22;64447;52.140;5.602;2024-01-30T15:36:22;8.60;99.90
35593;DHT22;64447;52.140;5.602;2024-01-30T15:38:48;8.70;99.90
35593;DHT22;64447;52.140;5.602;2024-01-30T15:41:13;8.70;99.90